• Join FlightAware (Why Join?)
  • Login
  • US Flag 
01:58AM EDT


 

Airport Tracker/Info


-or-


 

Live Flight TrackerFlight Track Log ✈ SKW5187 ✈ 15-Jul-2013 ✈ KAUS - KIAH

Flight Track Log - Related Links

Times and Time Zones

All times are in EDT time to prevent confusion due to time zone crossing. See the SKW5187 flight status page for this flight to view local times or setup timezone preferences in your user account.

Time Position Orientation Groundspeed Altitude Reporting Facility
EDT Latitude Longitude Course Direction KTS MPH feet Rate Location/Type
06:52PM 30.3078 -97.6414 90° East 233 268 4,000  Level Houston Center
06:53PM 30.3550 -97.5789 49° Northeast 269 310 6,400 2,580 Climbing Houston Center
06:54PM 30.3569 -97.3890 95° East  Level FlightAware Approximate
06:54PM 30.3539 -97.4892 91° East 275 316 9,400  Level Houston Center
06:55PM 30.3508 -97.3097 95° East  Level FlightAware Approximate
06:55PM 30.3525 -97.3947 91° East 289 333 12,100  Level Houston Center
06:56PM 30.3500 -97.2178 90° East  Level FlightAware Approximate
06:56PM 30.3717 -97.3003 77° East 317 365 14,700  Level Houston Center
06:57PM 30.3500 -97.1404 90° East  Level FlightAware Approximate
06:57PM 30.4561 -97.2528 26° Northeast 335 386 17,100  Level Houston Center
06:58PM 30.5514 -97.1886 30° Northeast 348 400 17,200 -60 Climbing Houston Center
06:59PM 30.6192 -97.1033 47° Northeast 359 413 17,000 -120 Descending Houston Center
07:00PM 30.6886 -97.0172 47° Northeast 364 419 17,000  Level Houston Center
07:01PM 30.7617 -96.9306 46° Northeast 372 428 17,000  Level Houston Center
07:02PM 30.7864 -96.8244 75° East 341 392 17,000  Level Houston Center
07:03PM 30.7519 -96.7325 114° Southeast 321 369 17,100 -180 Climbing Houston Center
07:04PM 30.6975 -96.6522 128° Southeast 312 359 16,700 -1,260 Descending Houston Center
07:05PM 30.6397 -96.5664 128° Southeast 332 382 14,600 -2,040 Descending Houston Center
07:06PM 30.5522 -96.4900 143° Southeast 332 382 12,600 -1,740 Descending Houston Center
07:07PM 30.4803 -96.4319 145° Southeast 314 361 11,100 -1,260 Descending Houston Center
07:08PM 30.4150 -96.3586 136° Southeast 335 386 10,100 -540 Descending Houston Center
07:09PM 30.3750 -96.2631 116° Southeast 329 379 10,000  Descending Houston Center
07:10PM 30.3344 -96.1669 116° Southeast 324 373 10,100  Climbing Houston Center
07:11PM 30.2922 -96.0897 122° Southeast 273 314 10,000 -660 Descending Houston Center
07:12PM 30.2339 -96.0189 134° Southeast 280 322 8,800 -900 Descending Houston Center
07:13PM 30.1822 -95.9572 134° Southeast 270 311 8,100 -360 Descending Houston Center
07:14PM 30.1322 -95.8881 130° Southeast 264 304 8,100  Level Houston Center
07:15PM 30.0936 -95.8297 127° Southeast 264 304 8,100 -840 Level Houston Center
07:16PM 30.0492 -95.7553 125° Southeast 270 311 6,500 -1,560 Descending Houston Center
07:17PM 30.0192 -95.6769 114° Southeast 256 295 5,000 -1,500 Descending Houston Center
07:18PM 29.9942 -95.6017 111° Southeast 251 289 3,200 -960 Descending Houston Center
07:19PM 29.9939 -95.5350 90° East 180 207 3,100 -600 Descending Houston Center
07:20PM 29.9925 -95.4725 91° East 167 192 2,100 -840 Descending Houston Center
07:21PM 29.9925 -95.4292 90° East 123 142 1,400 -660 Descending Houston Center
07:22PM 29.9933 -95.3903 89° East 126 145 800 240 Descending Houston Center
07:23PM 29.9936 -95.3494 90° East 137 158 1,900 600 Climbing Houston Center
07:24PM 30.0094 -95.2919 72° East 227 261 2,100 60 Climbing Houston Center
07:25PM 30.0686 -95.2969 356° North 221 254 2,100  Level Houston Center
07:27PM 30.1344 -95.3275 338° Northwest 225 259 2,100 420 Level Houston Center
07:27PM 30.1544 -95.3831 293° West 240 276 3,000 540 Climbing Houston Center
07:28PM 30.1697 -95.4608 283° West 253 291 3,100  Climbing Houston Center
07:29PM 30.1850 -95.5364 283° West 236 272 3,100  Level Houston Center
07:30PM 30.1914 -95.6081 276° West 224 258 3,100 -60 Level Houston Center
07:32PM 30.1994 -95.6983 276° West 231 266 3,000  Descending Houston Center
07:32PM 30.2028 -95.7592 274° West 228 262 3,100  Climbing Houston Center
07:33PM 30.1919 -95.8281 260° West 213 245 3,100  Level Houston Center
07:34PM 30.1589 -95.8803 234° Southwest 202 232 3,100  Level Houston Center
07:36PM 30.1031 -95.8914 190° South 203 234 3,100  Level Houston Center
07:37PM 30.0461 -95.8883 177° South 204 235 3,100 -60 Level Houston Center
07:38PM 30.0086 -95.8217 123° Southeast 200 230 3,000  Descending Houston Center
07:39PM 29.9922 -95.7764 113° Southeast 176 203 3,100  Climbing Houston Center
07:40PM 29.9919 -95.7258 90° East 168 193 3,100  Level Houston Center
07:41PM 29.9911 -95.6681 91° East 164 189 3,100  Level Houston Center
07:42PM 29.9914 -95.6247 90° East 163 188 3,100  Level Houston Center
07:43PM 29.9917 -95.5594 90° East 167 192 3,100 -120 Level Houston Center
07:44PM 29.9922 -95.5183 89° East 165 190 2,900 -540 Descending Houston Center
07:44PM 29.9933 -95.4936 87° East 165 190 2,400 -960 Descending Houston Center
07:45PM 29.9928 -95.4531 91° East 168 193 1,800 -840 Descending Houston Center